Time;durP1;ratioP1;P1;durP2;ratioP2;P2;SDS_P1;SDS_P2;PMS_P1;PMS_P2;Temp;Humidity;BMP_temperature;BMP_pressure;BME280_temperature;BME280_humidity;BME280_pressure;Samples;Min_cycle;Max_cycle;Signal;HPM_P1;HPM_P2
2021/05/16 00:00:42;;;;;;;1.70;0.90;;;;;;;10.59;78.06;97657.06;4883776;28;103705;-76
2021/05/16 00:03:10;;;;;;;3.37;0.97;;;;;;;10.60;78.00;97653.47;4887262;28;102659;-76
2021/05/16 00:05:38;;;;;;;1.23;0.80;;;;;;;10.62;77.84;97656.78;4887777;28;103105;-76
2021/05/16 00:08:06;;;;;;;2.73;1.23;;;;;;;10.65;78.10;97659.16;4886117;28;103883;-77
2021/05/16 00:10:33;;;;;;;3.53;1.03;;;;;;;10.56;78.12;97657.31;4846469;28;105921;-75
2021/05/16 00:13:02;;;;;;;2.43;0.87;;;;;;;10.64;78.35;97654.84;4886488;28;103355;-76
2021/05/16 00:15:31;;;;;;;1.97;0.83;;;;;;;10.56;78.72;97662.59;4887471;28;103328;-76
2021/05/16 00:17:59;;;;;;;2.90;0.93;;;;;;;10.62;78.54;97662.06;4886494;28;103947;-76
2021/05/16 00:20:29;;;;;;;3.77;0.90;;;;;;;10.65;78.35;97674.16;4887310;28;104216;-77
2021/05/16 00:22:57;;;;;;;0.80;0.80;;;;;;;10.55;78.80;97668.88;4884917;28;103222;-76
2021/05/16 00:25:25;;;;;;;2.27;1.00;;;;;;;10.67;78.30;97670.41;4892542;28;102688;-76
2021/05/16 00:27:53;;;;;;;1.63;0.80;;;;;;;10.62;78.19;97671.78;4877286;28;104039;-76
2021/05/16 00:30:25;;;;;;;1.70;0.80;;;;;;;10.64;78.60;97669.88;4889536;28;104497;-76
2021/05/16 00:32:54;;;;;;;1.33;0.83;;;;;;;10.68;78.41;97672.09;4889715;28;102830;-76
2021/05/16 00:35:24;;;;;;;2.40;0.77;;;;;;;10.74;78.18;97673.34;4890405;28;103313;-76
2021/05/16 00:37:51;;;;;;;1.83;1.00;;;;;;;10.67;78.40;97675.69;4888254;28;104722;-76
2021/05/16 00:40:19;;;;;;;1.17;0.67;;;;;;;10.67;78.31;97675.69;4896170;28;104777;-76
2021/05/16 00:42:47;;;;;;;2.10;0.90;;;;;;;10.61;79.01;97676.22;4892587;28;103217;-76
2021/05/16 00:45:16;;;;;;;2.83;1.00;;;;;;;10.57;78.74;97672.22;4900983;28;102970;-76
2021/05/16 00:47:50;;;;;;;2.80;0.90;;;;;;;10.62;79.00;97677.06;4888740;28;113957;-76
2021/05/16 00:50:20;;;;;;;2.90;0.80;;;;;;;10.72;78.57;97685.88;4871891;28;106432;-76
2021/05/16 00:52:48;;;;;;;1.03;0.60;;;;;;;10.76;79.04;97674.88;4872368;28;103060;-76
2021/05/16 00:55:17;;;;;;;2.23;0.80;;;;;;;10.64;81.32;97680.44;4885634;28;103395;-76
2021/05/16 00:57:46;;;;;;;1.53;0.90;;;;;;;10.65;82.22;97676.81;4878629;28;104513;-76
2021/05/16 01:00:16;;;;;;;2.37;0.80;;;;;;;10.67;81.41;97680.97;4889689;28;103769;-76
2021/05/16 01:02:45;;;;;;;2.70;0.87;;;;;;;10.58;81.94;97675.69;4857555;28;108792;-76
2021/05/16 01:05:16;;;;;;;2.07;0.80;;;;;;;10.63;81.97;97669.03;4871036;28;103068;-76
2021/05/16 01:07:46;;;;;;;1.30;0.70;;;;;;;10.53;82.19;97662.88;4888292;28;103961;-75
2021/05/16 01:10:15;;;;;;;3.03;1.00;;;;;;;10.67;82.35;97666.94;4889318;28;103499;-76
2021/05/16 01:12:45;;;;;;;3.67;1.00;;;;;;;10.67;81.33;97673.06;4895437;28;103109;-76
2021/05/16 01:15:16;;;;;;;2.27;0.87;;;;;;;10.81;81.24;97671.81;4908841;28;102780;-76
2021/05/16 01:17:45;;;;;;;3.60;1.60;;;;;;;10.69;81.93;97679.06;4908620;28;103896;-75
2021/05/16 01:20:14;;;;;;;1.73;0.93;;;;;;;10.66;82.13;97689.91;4873799;28;102888;-76
2021/05/16 01:22:53;;;;;;;2.90;0.90;;;;;;;10.72;81.37;97681.41;4872547;28;103044;-76
2021/05/16 01:25:22;;;;;;;2.27;0.97;;;;;;;10.83;81.15;97676.03;4884258;28;103254;-76
2021/05/16 01:27:50;;;;;;;3.10;1.20;;;;;;;10.69;81.41;97673.78;4885233;28;106912;-76
2021/05/16 01:30:20;;;;;;;2.50;1.07;;;;;;;10.68;81.58;97663.34;4889054;28;102873;-76
2021/05/16 01:32:50;;;;;;;2.60;1.10;;;;;;;10.86;80.63;97667.81;4888892;28;102795;-76
2021/05/16 01:35:17;;;;;;;4.37;0.97;;;;;;;10.76;80.83;97666.97;4886678;28;104494;-77
2021/05/16 01:37:46;;;;;;;2.60;1.10;;;;;;;10.61;81.50;97663.03;4885611;28;105219;-76
2021/05/16 01:40:16;;;;;;;2.37;1.00;;;;;;;10.75;81.27;97664.47;4888111;28;103917;-76
2021/05/16 01:42:48;;;;;;;2.87;0.90;;;;;;;10.73;80.92;97669.88;4888716;28;102947;-76
2021/05/16 01:45:18;;;;;;;1.70;0.90;;;;;;;10.82;80.45;97661.13;4883374;28;103215;-76
2021/05/16 01:47:45;;;;;;;1.73;0.80;;;;;;;10.91;79.92;97662.97;4888183;28;105542;-76
2021/05/16 01:50:15;;;;;;;2.77;1.07;;;;;;;10.82;79.83;97663.78;4888819;28;103340;-76
2021/05/16 01:52:45;;;;;;;1.73;0.80;;;;;;;10.88;80.33;97662.41;4888101;28;102858;-76
2021/05/16 01:55:17;;;;;;;1.63;0.90;;;;;;;10.81;80.44;97662.09;4883017;28;102764;-76
2021/05/16 01:57:46;;;;;;;1.73;1.07;;;;;;;10.73;80.93;97659.31;4870085;28;104038;-77
2021/05/16 02:00:17;;;;;;;2.33;1.17;;;;;;;10.75;80.54;97651.28;4907504;28;104450;-76
2021/05/16 02:02:46;;;;;;;2.60;1.17;;;;;;;10.59;81.20;97656.22;4880967;28;102687;-74
2021/05/16 02:05:21;;;;;;;1.10;0.87;;;;;;;10.71;80.90;97655.97;4891052;28;102890;-75
2021/05/16 02:07:51;;;;;;;3.93;1.30;;;;;;;10.78;80.53;97657.09;4871835;28;102841;-76
2021/05/16 02:10:22;;;;;;;2.80;1.07;;;;;;;10.68;81.19;97650.97;4867113;28;103298;-76
2021/05/16 02:12:54;;;;;;;3.20;1.03;;;;;;;10.57;81.54;97647.59;4886295;28;103320;-76
2021/05/16 02:15:23;;;;;;;2.10;1.13;;;;;;;10.44;82.59;97647.88;4871495;28;103225;-76
2021/05/16 02:17:54;;;;;;;3.27;0.97;;;;;;;10.66;81.90;97642.34;4849015;28;104798;-76
2021/05/16 02:20:23;;;;;;;1.40;0.90;;;;;;;10.55;82.24;97647.75;4883693;28;104205;-76
2021/05/16 02:22:51;;;;;;;2.30;1.20;;;;;;;10.51;82.85;97653.44;4871547;28;103051;-76
2021/05/16 02:25:21;;;;;;;2.93;1.33;;;;;;;10.64;82.30;97649.56;4886132;28;103122;-76
2021/05/16 02:27:50;;;;;;;1.93;0.90;;;;;;;10.69;82.51;97647.38;4887614;28;104446;-76
2021/05/16 02:30:20;;;;;;;2.30;1.20;;;;;;;10.53;83.34;97649.66;4881523;28;113042;-76
2021/05/16 02:32:48;;;;;;;1.43;0.93;;;;;;;10.65;83.75;97645.13;4886874;28;102989;-76
2021/05/16 02:35:16;;;;;;;1.90;0.90;;;;;;;10.61;84.75;97649.81;4886440;28;102892;-76
2021/05/16 02:37:58;;;;;;;1.80;1.00;;;;;;;10.67;84.98;97637.88;4869801;28;104089;-76
2021/05/16 02:40:28;;;;;;;2.40;1.20;;;;;;;10.75;84.66;97646.78;4886458;28;103227;-76
2021/05/16 02:42:56;;;;;;;1.93;1.23;;;;;;;10.69;85.73;97646.53;4886292;28;103327;-76
2021/05/16 02:45:25;;;;;;;3.57;1.27;;;;;;;10.60;86.50;97657.91;4868229;28;103264;-76
2021/05/16 02:47:57;;;;;;;3.27;1.00;;;;;;;10.55;87.46;97660.97;4902741;28;103978;-76
2021/05/16 02:50:29;;;;;;;3.07;1.10;;;;;;;10.61;87.09;97655.09;4878999;28;105525;-76
2021/05/16 02:53:02;;;;;;;2.13;1.23;;;;;;;10.58;87.48;97660.69;4888403;28;102817;-76
2021/05/16 02:55:36;;;;;;;2.67;1.17;;;;;;;10.52;87.83;97655.94;4883881;28;103250;-76
2021/05/16 02:58:05;;;;;;;2.90;1.20;;;;;;;10.43;87.64;97651.47;4889015;28;103513;-76
2021/05/16 03:00:41;;;;;;;4.17;0.90;;;;;;;10.58;87.93;97652.78;4870736;28;105055;-76
2021/05/16 03:03:09;;;;;;;2.83;1.00;;;;;;;10.52;88.76;97655.94;4872649;28;103054;-76
2021/05/16 03:05:37;;;;;;;1.43;1.00;;;;;;;10.53;88.89;97654.13;4882987;28;103201;-76
2021/05/16 03:08:05;;;;;;;3.77;1.23;;;;;;;10.40;89.94;97652.56;4881561;28;103802;-76
2021/05/16 03:10:36;;;;;;;2.30;1.10;;;;;;;10.52;88.79;97648.03;4875149;28;103638;-76
2021/05/16 03:13:05;;;;;;;4.27;1.47;;;;;;;10.54;89.45;97647.88;4867067;28;102892;-76
2021/05/16 03:15:34;;;;;;;3.37;1.40;;;;;;;10.42;90.13;97648.00;4867680;28;103579;-76
2021/05/16 03:18:01;;;;;;;2.30;1.20;;;;;;;10.43;90.14;97640.91;4878948;28;112677;-76
2021/05/16 03:20:30;;;;;;;3.27;1.40;;;;;;;10.47;89.98;97637.00;4889282;28;103257;-76
2021/05/16 03:22:59;;;;;;;3.03;1.00;;;;;;;10.45;90.68;97633.69;4903551;28;102948;-76
2021/05/16 03:25:30;;;;;;;1.43;1.00;;;;;;;10.51;90.68;97638.41;4880324;28;103367;-76
2021/05/16 03:27:58;;;;;;;4.20;1.23;;;;;;;10.60;89.92;97642.06;4863320;28;106315;-76
2021/05/16 03:30:26;;;;;;;4.20;1.40;;;;;;;10.61;90.55;97641.09;4886992;28;108933;-76
2021/05/16 03:32:53;;;;;;;2.27;1.00;;;;;;;10.62;89.70;97646.22;4884276;28;103053;-76
2021/05/16 03:35:21;;;;;;;4.17;1.60;;;;;;;10.61;89.89;97644.53;4900188;28;102865;-76
2021/05/16 03:37:49;;;;;;;3.83;1.33;;;;;;;10.59;89.79;97641.22;4905544;28;103910;-76
2021/05/16 03:40:17;;;;;;;2.73;1.40;;;;;;;10.52;90.40;97645.38;4906188;28;103721;-76
2021/05/16 03:42:45;;;;;;;3.60;1.10;;;;;;;10.61;89.95;97641.91;4906226;28;103234;-76
2021/05/16 03:45:14;;;;;;;3.67;1.37;;;;;;;10.56;90.72;97646.75;4898406;28;102749;-76
2021/05/16 03:47:42;;;;;;;2.50;1.10;;;;;;;10.64;89.98;97644.28;4886486;28;104355;-76
2021/05/16 03:50:11;;;;;;;3.83;1.57;;;;;;;10.49;90.50;97645.66;4886520;28;103780;-75
2021/05/16 03:52:40;;;;;;;2.50;1.27;;;;;;;10.52;90.09;97645.38;4887176;28;102944;-76
2021/05/16 03:55:08;;;;;;;2.50;1.23;;;;;;;10.52;90.53;97653.31;4887108;28;103075;-75
2021/05/16 03:57:36;;;;;;;1.77;1.07;;;;;;;10.60;90.37;97648.19;4881028;28;103427;-76
2021/05/16 04:00:04;;;;;;;4.20;1.30;;;;;;;10.47;90.84;97650.22;4886652;28;103650;-76
2021/05/16 04:02:39;;;;;;;4.60;1.30;;;;;;;10.52;91.24;97649.81;4885520;28;103068;-76
2021/05/16 04:05:07;;;;;;;3.27;1.60;;;;;;;10.48;91.61;97651.91;4888399;28;103078;-75
2021/05/16 04:07:35;;;;;;;2.90;1.13;;;;;;;10.57;91.08;97651.09;4871469;28;103903;-76
2021/05/16 04:10:02;;;;;;;2.43;1.00;;;;;;;10.57;91.04;97653.72;4885822;28;103680;-76
2021/05/16 04:12:30;;;;;;;1.53;0.90;;;;;;;10.56;91.95;97657.31;4890337;28;102543;-76
2021/05/16 04:14:58;;;;;;;2.87;1.13;;;;;;;10.52;91.83;97653.31;4890783;28;102665;-75
2021/05/16 04:17:25;;;;;;;2.53;1.17;;;;;;;10.62;91.52;97655.94;4889969;28;103377;-76
2021/05/16 04:19:53;;;;;;;3.33;1.17;;;;;;;10.49;92.17;97661.50;4890022;28;103266;-76
2021/05/16 04:22:21;;;;;;;3.13;1.40;;;;;;;10.43;93.67;97656.75;4870978;28;103027;-76
2021/05/16 04:24:48;;;;;;;4.80;1.17;;;;;;;10.48;94.23;97659.81;4887855;28;102972;-76
2021/05/16 04:27:16;;;;;;;2.63;1.10;;;;;;;10.52;94.04;97658.59;4888719;28;108638;-76
2021/05/16 04:29:44;;;;;;;5.40;1.10;;;;;;;10.56;93.24;97652.03;4889291;28;103747;-76
2021/05/16 04:32:12;;;;;;;4.37;1.33;;;;;;;10.49;93.79;97648.28;4889725;28;103331;-76
2021/05/16 04:34:39;;;;;;;2.80;1.37;;;;;;;10.57;94.17;97645.81;4887292;28;102965;-75
2021/05/16 04:37:08;;;;;;;2.63;0.90;;;;;;;10.67;93.32;97653.72;4885598;28;103860;-76
2021/05/16 04:39:35;;;;;;;1.73;1.30;;;;;;;10.72;92.96;97644.41;4909127;28;103677;-76
2021/05/16 04:42:03;;;;;;;3.10;1.30;;;;;;;10.78;93.06;97643.88;4908999;28;103156;-78
2021/05/16 04:44:31;;;;;;;2.03;1.10;;;;;;;10.82;92.90;97647.94;4915787;28;102988;-80
2021/05/16 04:46:58;;;;;;;1.87;0.90;;;;;;;10.92;92.42;97659.31;4901513;28;102990;-79
2021/05/16 04:49:26;;;;;;;1.57;1.07;;;;;;;10.96;91.92;97644.88;4912316;28;103795;-81
2021/05/16 04:51:53;;;;;;;1.47;0.90;;;;;;;10.93;91.56;97658.38;4910190;28;102741;-80
2021/05/16 04:59:05;;;;;;;3.57;1.10;;;;;;;10.79;92.63;97636.78;4900996;28;103593;-80
2021/05/16 05:01:32;;;;;;;1.83;1.10;;;;;;;10.90;92.25;97644.59;4909676;28;102453;-80
2021/05/16 05:04:00;;;;;;;1.90;0.97;;;;;;;10.95;91.65;97640.56;4912347;28;102510;-80
2021/05/16 05:06:29;;;;;;;1.60;1.17;;;;;;;10.72;91.56;97652.34;4907697;28;102647;-81
2021/05/16 05:08:58;;;;;;;1.27;0.90;;;;;;;10.70;92.24;97651.66;4889825;28;107433;-81
2021/05/16 05:11:25;;;;;;;1.50;1.00;;;;;;;10.85;92.45;97649.47;4890403;28;102345;-80
2021/05/16 05:13:53;;;;;;;3.40;1.20;;;;;;;10.91;91.29;97651.56;4901931;28;102458;-80
2021/05/16 05:16:21;;;;;;;2.10;1.03;;;;;;;11.01;90.88;97647.94;4899824;28;102567;-80
2021/05/16 05:18:49;;;;;;;1.87;1.00;;;;;;;11.02;91.43;97646.13;4902061;28;103515;-80
2021/05/16 05:21:16;;;;;;;1.83;1.00;;;;;;;11.12;90.30;97648.75;4900987;28;102732;-80
2021/05/16 05:23:44;;;;;;;4.17;1.03;;;;;;;11.15;89.41;97653.78;4899241;28;102936;-77
2021/05/16 05:26:11;;;;;;;3.40;1.20;;;;;;;11.33;89.32;97657.41;4898914;28;106848;-79
2021/05/16 05:28:39;;;;;;;2.57;1.10;;;;;;;11.36;89.70;97659.75;4889812;28;103894;-79
2021/05/16 05:31:06;;;;;;;1.63;0.87;;;;;;;11.46;88.61;97648.19;4890409;28;103821;-79
2021/05/16 05:33:35;;;;;;;4.07;1.10;;;;;;;11.39;88.62;97662.97;4896736;28;102617;-79
2021/05/16 05:36:02;;;;;;;2.00;1.00;;;;;;;11.42;89.74;97661.84;4899766;28;103069;-79
2021/05/16 05:38:30;;;;;;;2.57;1.03;;;;;;;11.47;89.13;97667.53;4888095;28;103843;-79
2021/05/16 05:40:57;;;;;;;3.37;1.17;;;;;;;11.50;88.80;97670.75;4874973;28;103925;-79
2021/05/16 05:43:25;;;;;;;1.70;1.00;;;;;;;11.46;88.64;97671.16;4908144;28;102477;-79
2021/05/16 05:45:52;;;;;;;2.50;0.90;;;;;;;11.50;89.63;97661.97;4907629;28;103400;-79
2021/05/16 05:48:20;;;;;;;3.50;1.00;;;;;;;11.35;90.84;97668.66;4906120;28;104467;-75
2021/05/16 05:50:48;;;;;;;6.67;1.13;;;;;;;11.26;91.87;97667.69;4892166;28;103234;-77
2021/05/16 05:53:15;;;;;;;5.03;1.27;;;;;;;11.22;92.36;97665.47;4889001;28;102985;-78
2021/05/16 05:55:43;;;;;;;1.90;0.90;;;;;;;11.25;92.99;97659.91;4893953;28;102983;-78
2021/05/16 05:58:11;;;;;;;1.40;0.87;;;;;;;11.07;93.28;97657.97;4894171;28;103880;-78
2021/05/16 06:00:38;;;;;;;2.20;0.90;;;;;;;10.99;94.47;97655.19;4888480;28;103873;-80
2021/05/16 06:03:06;;;;;;;3.20;1.10;;;;;;;11.09;94.49;97651.72;4912452;28;102973;-77
2021/05/16 06:05:34;;;;;;;1.73;1.10;;;;;;;11.13;93.73;97661.84;4905164;28;102462;-80
2021/05/16 06:08:23;;;;;;;3.33;1.20;;;;;;;11.00;93.71;97675.31;4893036;28;103004;-78
2021/05/16 06:10:52;;;;;;;0.93;0.73;;;;;;;11.23;93.08;97672.44;4891505;28;103715;-81
2021/05/16 06:13:20;;;;;;;1.30;0.73;;;;;;;11.35;92.94;97676.59;4890371;28;104760;-79
2021/05/16 06:15:47;;;;;;;1.80;1.00;;;;;;;11.36;92.76;97662.41;4877661;28;102649;-80
2021/05/16 06:18:15;;;;;;;2.13;1.00;;;;;;;11.63;91.69;97668.63;4877728;28;104027;-79
2021/05/16 06:20:42;;;;;;;2.10;1.00;;;;;;;11.68;90.63;97662.91;4877858;28;103770;-79
2021/05/16 06:23:11;;;;;;;2.70;1.00;;;;;;;11.64;89.69;97666.81;4883728;28;103024;-80
2021/05/16 06:25:44;;;;;;;2.40;0.80;;;;;;;11.51;90.46;97669.75;4889351;28;103001;-80
2021/05/16 06:28:12;;;;;;;2.47;0.90;;;;;;;11.61;90.50;97667.94;4884765;28;103904;-77
2021/05/16 06:30:39;;;;;;;3.27;1.17;;;;;;;11.69;90.50;97664.63;4872475;28;103753;-80
2021/05/16 06:33:07;;;;;;;2.53;0.83;;;;;;;11.98;89.64;97670.69;4881297;28;103065;-78
2021/05/16 06:35:34;;;;;;;2.23;0.80;;;;;;;12.06;88.77;97672.59;4881979;28;102786;-76
2021/05/16 06:38:02;;;;;;;1.83;0.70;;;;;;;12.20;88.79;97665.03;4880554;28;111136;-74
2021/05/16 06:40:32;;;;;;;2.10;1.00;;;;;;;12.18;88.53;97666.97;4883509;28;103788;-73
2021/05/16 06:43:04;;;;;;;2.40;0.90;;;;;;;12.41;87.19;97675.38;4880768;28;102552;-76
2021/05/16 06:45:33;;;;;;;1.97;0.70;;;;;;;12.77;86.53;97671.00;4885234;28;102928;-78
2021/05/16 06:48:01;;;;;;;1.37;0.50;;;;;;;12.86;85.42;97682.50;4883218;28;103444;-78
2021/05/16 06:50:29;;;;;;;1.20;0.90;;;;;;;13.20;84.74;97672.94;4870234;28;104896;-78
2021/05/16 06:52:56;;;;;;;2.13;1.10;;;;;;;13.02;83.23;97680.88;4881913;28;103412;-78
2021/05/16 06:55:24;;;;;;;2.07;0.90;;;;;;;13.04;82.45;97670.13;4887580;28;103087;-78
2021/05/16 06:57:51;;;;;;;3.90;1.03;;;;;;;13.07;83.17;97665.38;4876829;28;103816;-78
2021/05/16 07:00:20;;;;;;;1.20;0.70;;;;;;;13.17;82.66;97666.13;4883694;28;103737;-78
2021/05/16 07:02:48;;;;;;;2.07;0.77;;;;;;;13.10;82.75;97670.38;4903251;28;103146;-78
2021/05/16 07:05:15;;;;;;;1.63;0.83;;;;;;;13.13;81.99;97664.78;4888075;28;102901;-78
2021/05/16 07:07:43;;;;;;;1.77;0.80;;;;;;;13.15;81.72;97667.28;4887515;28;104714;-78
2021/05/16 07:10:11;;;;;;;2.30;0.80;;;;;;;13.23;81.15;97670.84;4883877;28;104629;-78
2021/05/16 07:12:38;;;;;;;2.23;0.90;;;;;;;13.37;80.48;97672.09;4884951;28;102910;-78
2021/05/16 07:15:11;;;;;;;1.20;0.73;;;;;;;13.37;80.76;97672.09;4886980;28;103452;-77
2021/05/16 07:17:40;;;;;;;2.13;0.70;;;;;;;13.48;79.74;97669.22;4876746;28;104207;-79
2021/05/16 07:20:10;;;;;;;2.83;0.80;;;;;;;13.58;78.98;97674.44;4863411;28;104695;-77
2021/05/16 07:22:38;;;;;;;4.80;0.60;;;;;;;13.72;78.81;97665.94;4870806;28;103011;-77
2021/05/16 07:25:06;;;;;;;2.20;0.93;;;;;;;13.82;78.25;97661.34;4887475;28;102680;-79
2021/05/16 07:27:34;;;;;;;1.30;0.67;;;;;;;13.58;77.67;97667.31;4881500;28;103101;-80
2021/05/16 07:30:04;;;;;;;1.83;1.10;;;;;;;13.67;78.40;97669.03;4882838;28;104809;-79
2021/05/16 07:32:31;;;;;;;1.90;0.80;;;;;;;13.56;77.18;97671.13;4879525;28;103213;-78
2021/05/16 07:35:00;;;;;;;1.97;0.77;;;;;;;13.49;77.50;97675.34;4868476;28;102741;-78
2021/05/16 07:37:27;;;;;;;1.77;0.70;;;;;;;13.72;77.22;97665.94;4879615;28;103840;-77
2021/05/16 07:39:55;;;;;;;2.90;0.80;;;;;;;13.77;76.83;97666.28;4882758;28;103885;-78
2021/05/16 07:42:29;;;;;;;2.43;0.80;;;;;;;13.80;74.42;97668.63;4889516;28;102717;-76
2021/05/16 07:45:13;;;;;;;1.90;0.90;;;;;;;14.07;75.21;97668.47;4880671;28;103112;-78
2021/05/16 07:47:41;;;;;;;2.00;0.80;;;;;;;14.19;74.16;97661.06;4882347;28;103424;-78
2021/05/16 07:50:11;;;;;;;2.70;0.73;;;;;;;14.24;74.28;97661.41;4879815;28;104404;-77
2021/05/16 07:52:39;;;;;;;1.37;0.70;;;;;;;14.17;73.80;97657.75;4880811;28;104021;-78
2021/05/16 07:55:08;;;;;;;1.17;0.60;;;;;;;14.29;75.50;97662.63;4876769;28;103093;-77
2021/05/16 07:57:36;;;;;;;1.83;0.70;;;;;;;14.22;74.32;97661.59;4868903;28;104079;-78
2021/05/16 08:00:09;;;;;;;1.83;0.70;;;;;;;14.47;74.26;97659.91;4877162;28;104092;-77
2021/05/16 08:02:43;;;;;;;1.30;0.60;;;;;;;15.09;72.48;97663.91;4879400;28;103010;-77
2021/05/16 08:05:13;;;;;;;2.57;0.70;;;;;;;15.91;69.60;97653.16;4891219;28;103326;-78
2021/05/16 08:07:41;;;;;;;2.83;0.87;;;;;;;15.00;70.83;97654.25;4902872;28;104149;-80
2021/05/16 08:10:09;;;;;;;1.67;0.70;;;;;;;14.83;71.06;97657.88;4900229;28;102931;-77
2021/05/16 08:12:37;;;;;;;2.63;1.10;;;;;;;14.96;73.30;97668.88;4899206;28;102601;-77
2021/05/16 08:15:06;;;;;;;4.07;0.93;;;;;;;14.72;69.31;97661.66;4894710;28;103046;-78
2021/05/16 08:18:06;;;;;;;3.40;1.27;;;;;;;14.62;70.14;97665.47;4894585;28;103879;-78
2021/05/16 08:20:40;;;;;;;2.17;0.83;;;;;;;15.82;68.95;97656.81;4875201;28;104027;-77
2021/05/16 08:23:07;;;;;;;2.70;0.87;;;;;;;15.92;66.23;97652.13;4883416;28;102473;-78
2021/05/16 08:25:36;;;;;;;1.97;0.77;;;;;;;15.98;66.92;97655.94;4895513;28;102785;-78
2021/05/16 08:28:10;;;;;;;2.33;0.80;;;;;;;16.31;66.65;97657.53;4894496;28;103818;-78
2021/05/16 08:30:38;;;;;;;1.97;0.87;;;;;;;16.39;66.06;97654.84;4894917;28;103708;-77
2021/05/16 08:33:06;;;;;;;2.53;1.03;;;;;;;16.74;63.83;97649.06;4893534;28;102462;-77
2021/05/16 08:35:34;;;;;;;2.40;1.00;;;;;;;16.61;62.71;97654.13;4895471;28;102970;-77
2021/05/16 08:38:03;;;;;;;1.67;1.03;;;;;;;17.63;60.20;97650.31;4895123;28;103811;-77
2021/05/16 08:40:30;;;;;;;2.10;0.73;;;;;;;17.62;60.32;97652.16;4894433;28;104831;-77
2021/05/16 08:47:33;;;;;;;2.07;0.80;;;;;;;18.64;59.45;97646.09;4889789;28;102485;-78
2021/05/16 08:50:52;;;;;;;1.70;0.70;;;;;;;18.55;57.01;97635.69;4896493;28;103993;-78
2021/05/16 08:53:40;;;;;;;3.03;0.90;;;;;;;18.63;56.88;97639.09;4892543;28;102941;-77
2021/05/16 08:56:08;;;;;;;1.90;1.03;;;;;;;18.82;58.72;97635.81;4895454;28;102403;-77
2021/05/16 08:58:36;;;;;;;1.67;0.80;;;;;;;19.38;55.40;97644.03;4895548;28;102423;-77
2021/05/16 09:05:01;;;;;;;4.00;1.00;;;;;;;18.48;56.32;97624.91;4881765;28;103686;-74
2021/05/16 09:07:29;;;;;;;3.10;1.15;;;;;;;18.59;53.57;97632.44;4863529;28;103060;-76
2021/05/16 09:09:58;;;;;;;3.38;1.15;;;;;;;18.91;52.10;97621.31;4877689;28;104743;-80
2021/05/16 09:16:13;;;;;;;3.08;1.08;;;;;;;19.35;52.95;97617.66;4867998;28;103942;-80
2021/05/16 09:18:44;;;;;;;2.30;1.00;;;;;;;19.31;53.56;97614.50;4872752;28;103273;-79
2021/05/16 09:21:28;;;;;;;3.05;1.10;;;;;;;19.38;50.27;97618.13;4870424;28;103186;-78
2021/05/16 09:24:09;;;;;;;3.85;1.08;;;;;;;18.96;52.03;97618.91;4857518;28;105832;-79
2021/05/16 09:26:49;;;;;;;4.57;1.38;;;;;;;17.95;51.64;97621.47;4855726;28;104960;-75
2021/05/16 09:29:18;;;;;;;4.85;1.38;;;;;;;18.13;53.31;97617.59;4864423;28;103050;-74
2021/05/16 09:31:46;;;;;;;3.10;0.98;;;;;;;18.93;52.65;97621.97;4866029;28;103693;-74
2021/05/16 09:34:14;;;;;;;4.35;1.38;;;;;;;19.10;51.08;97615.34;4869744;28;104076;-76
2021/05/16 09:36:45;;;;;;;4.35;1.05;;;;;;;18.77;51.07;97614.16;4885651;28;104337;-74
2021/05/16 09:39:18;;;;;;;3.05;1.27;;;;;;;18.84;50.02;97620.41;4889625;28;103314;-74
2021/05/16 09:42:00;;;;;;;2.47;1.20;;;;;;;18.38;49.42;97610.97;4887572;28;103403;-73
2021/05/16 09:44:30;;;;;;;3.17;1.40;;;;;;;18.06;51.87;97608.66;4874855;28;103896;-73
2021/05/16 09:47:15;;;;;;;2.70;1.05;;;;;;;18.15;51.22;97599.53;4886825;28;104298;-74
2021/05/16 09:49:45;;;;;;;4.65;1.30;;;;;;;17.67;52.03;97601.72;4877960;28;103035;-76
2021/05/16 09:52:14;;;;;;;4.30;1.13;;;;;;;17.67;51.62;97607.06;4886984;28;102891;-73
2021/05/16 09:55:02;;;;;;;2.40;1.13;;;;;;;19.21;50.02;97595.28;4891761;28;105335;-75
2021/05/16 09:57:33;;;;;;;2.50;1.25;;;;;;;19.36;49.73;97595.22;4886022;28;104768;-74
2021/05/16 10:00:01;;;;;;;5.63;1.42;;;;;;;19.94;48.38;97584.16;4888628;28;103219;-74
2021/05/16 10:02:31;;;;;;;3.47;1.38;;;;;;;20.39;47.64;97584.66;4896001;28;103195;-76
2021/05/16 10:05:01;;;;;;;4.18;1.73;;;;;;;19.55;48.24;97581.19;4892821;28;104313;-75
2021/05/16 10:07:30;;;;;;;3.10;1.00;;;;;;;19.27;48.99;97578.44;4881899;28;103873;-76
2021/05/16 10:09:59;;;;;;;4.80;1.45;;;;;;;19.29;49.23;97589.78;4881313;28;103853;-76
2021/05/16 10:12:27;;;;;;;4.28;2.08;;;;;;;19.86;48.23;97568.22;4885161;28;102948;-75
2021/05/16 10:14:59;;;;;;;2.90;1.30;;;;;;;19.59;47.79;97563.72;4883867;28;103848;-75
2021/05/16 10:17:27;;;;;;;2.95;1.33;;;;;;;19.94;49.03;97565.41;4886058;28;103786;-76
2021/05/16 10:19:55;;;;;;;3.17;1.30;;;;;;;19.85;48.46;97560.38;4861322;28;103076;-75
2021/05/16 10:22:27;;;;;;;2.08;1.17;;;;;;;20.11;47.09;97558.69;4885393;28;103121;-75
2021/05/16 10:24:59;;;;;;;5.15;1.55;;;;;;;20.32;46.55;97546.25;4886072;28;103826;-75
2021/05/16 10:27:29;;;;;;;4.60;1.42;;;;;;;20.55;43.50;97552.94;4879188;28;103982;-76
2021/05/16 10:30:00;;;;;;;2.80;1.23;;;;;;;20.33;46.41;97538.00;4874458;28;103085;-74
2021/05/16 10:32:34;;;;;;;1.95;0.85;;;;;;;20.32;46.04;97546.25;4875959;28;103385;-75
2021/05/16 10:35:03;;;;;;;3.35;1.25;;;;;;;20.45;45.78;97535.56;4876751;28;104919;-78
2021/05/16 10:37:50;;;;;;;3.17;1.33;;;;;;;20.06;45.28;97533.50;4888603;28;104128;-79
2021/05/16 10:40:42;;;;;;;2.45;1.02;;;;;;;20.92;44.72;97538.19;4889311;28;102886;-79
2021/05/16 10:43:25;;;;;;;2.10;0.80;;;;;;;21.36;43.91;97535.78;4887310;28;103330;-77
2021/05/16 10:45:54;;;;;;;3.17;1.33;;;;;;;21.35;43.22;97528.78;4885502;28;103448;-76
2021/05/16 10:48:32;;;;;;;4.25;1.20;;;;;;;21.40;41.72;97520.09;4887574;28;103922;-75
2021/05/16 10:51:00;;;;;;;2.63;1.10;;;;;;;21.52;41.63;97529.19;4881006;28;102977;-77
2021/05/16 10:53:36;;;;;;;3.97;1.40;;;;;;;21.02;43.41;97529.75;4882100;28;103218;-73
2021/05/16 10:56:21;;;;;;;2.20;1.00;;;;;;;21.27;43.54;97526.28;4877217;28;105387;-74
2021/05/16 10:58:56;;;;;;;1.38;0.77;;;;;;;21.68;43.32;97511.78;4878559;28;103860;-74
2021/05/16 11:01:33;;;;;;;3.15;1.10;;;;;;;21.71;42.80;97511.38;4880347;28;102991;-78
2021/05/16 11:04:02;;;;;;;3.03;1.17;;;;;;;21.56;42.38;97518.84;4888171;28;103044;-73
2021/05/16 11:06:58;;;;;;;3.00;1.20;;;;;;;21.48;42.97;97511.81;4887457;28;104151;-77
2021/05/16 11:09:34;;;;;;;3.72;1.10;;;;;;;21.13;43.79;97495.09;4878250;28;104004;-78
2021/05/16 11:12:03;;;;;;;2.90;0.98;;;;;;;20.91;42.77;97482.88;4879804;28;102788;-77
2021/05/16 11:14:35;;;;;;;3.80;1.08;;;;;;;20.67;44.07;97492.31;4877272;28;103269;-77
2021/05/16 11:17:05;;;;;;;3.03;1.00;;;;;;;20.69;43.80;97484.88;4887130;28;105267;-74
2021/05/16 11:19:35;;;;;;;2.92;1.00;;;;;;;21.34;43.92;97478.75;4879140;28;103915;-75
2021/05/16 11:22:12;;;;;;;2.90;1.30;;;;;;;22.05;43.58;97472.66;4864461;28;103498;-76
2021/05/16 11:24:47;;;;;;;2.50;1.08;;;;;;;21.46;42.80;97467.38;4866010;28;103435;-75
2021/05/16 11:27:22;;;;;;;3.05;1.20;;;;;;;21.28;43.46;97463.47;4850598;28;107823;-77
2021/05/16 11:29:52;;;;;;;2.28;1.30;;;;;;;21.37;43.03;97464.91;4848590;28;103838;-76
2021/05/16 11:32:28;;;;;;;3.90;1.30;;;;;;;22.01;41.98;97458.00;4867490;28;102765;-75
2021/05/16 11:35:18;;;;;;;3.53;1.08;;;;;;;22.28;41.14;97444.22;4883020;28;103163;-75
2021/05/16 11:37:49;;;;;;;3.70;0.80;;;;;;;21.35;42.75;97456.25;4869238;28;103340;-77
2021/05/16 11:40:22;;;;;;;2.85;1.00;;;;;;;21.37;42.14;97448.81;4885836;28;104207;-78
2021/05/16 11:42:57;;;;;;;2.97;1.27;;;;;;;21.94;41.97;97441.88;4883173;28;102926;-75
2021/05/16 11:45:29;;;;;;;3.88;1.00;;;;;;;21.26;41.72;97435.16;4884667;28;103029;-75
2021/05/16 11:47:57;;;;;;;2.63;1.08;;;;;;;22.21;40.55;97419.19;4869172;28;103766;-74
2021/05/16 11:50:40;;;;;;;2.30;0.85;;;;;;;21.90;41.07;97427.19;4891353;28;103667;-76
2021/05/16 11:53:08;;;;;;;2.75;0.95;;;;;;;21.87;39.51;97420.38;4898792;28;102962;-75
2021/05/16 11:55:35;;;;;;;1.77;0.70;;;;;;;21.87;40.46;97419.56;4888792;28;103239;-75